Skip Navigation Links
NOAA logo - Click to go to the NOAA homepage
NOAA's National Weather Service
Alaska Aviation Weather Unit
  NWS logo - Click to go to the NWS homepage
Left Navbar Graphic     02 AKDT = 10 GMT

   
NOAA is celebrating 200 years of science, service, and stewardship. Visit the NOAA 200th celebration Web site to learn more.
USA.gov is the U.S. Government's official Web portal to all Federal, state and local government Web resources and services.
Facebook
NWS on Facebook

AAWU Home :: Display TAF Add Bookmark
TAF PAKW 270558Z 2706/2806 04010KT P6SM -RA OVC050 WS020/13035KT
     FM271000 06007KT P6SM -RA BKN020 OVC040 WS020/14030KT
     FM271900 12007KT 6SM -SHRA BR BKN015 OVC025 WS020/13025KT
      AMD LTD TO CLD VIS AND WIND=
METAR PAKW 270453Z AUTO 04008KT 10SM OVC065 06/00 A2950 RMK AO2 SLP991
     T00560000 TSNO=

METAR PAKW 270553Z AUTO VRB04KT 10SM FEW047 BKN060 OVC100 06/01 A2951
     RMK AO2 SLP994 T00560006 10089 20050 53002 TSNO=

METAR PAKW 270653Z AUTO 00000KT 10SM BKN038 OVC047 07/00 A2952 RMK AO2
     SLP998 T00670000 TSNO=

METAR PAKW 270753Z AUTO VRB04KT 10SM OVC031 05/01 A2955 RMK AO2 SLP006
     T00500011 TSNO=

SPECI PAKW 270818Z AUTO 00000KT 10SM OVC028 06/01 A2955 RMK AO2
     T00560011 TSNO=

SPECI PAKW 270846Z AUTO 00000KT 10SM -RA SCT028 OVC038 05/02 A2956 RMK
     AO2 RAB37 P0000 T00500017 TSNO=

METAR PAKW 270853Z AUTO 00000KT 10SM -RA SCT028 SCT034 OVC043 06/01
     A2956 RMK AO2 RAB37 SLP010 P0000 60000 T00560011 400890017
     51016 TSNO=

METAR PAKW 270953Z AUTO 00000KT 10SM BKN030 OVC037 05/02 A2957 RMK AO2
     RAE0858 SLP014 P0000 T00500017 TSNO=

SPECI PAKW 271016Z AUTO 00000KT 10SM FEW013 BKN023 OVC029 04/02 A2958
     RMK AO2 T00440017 TSNO=


NOAA's National Weather Service
Alaska Aviation Weather Unit
6930 Sand Lake Road
Anchorage, AK 99502-1845
Disclaimer
Credits
Glossary
Privacy Policy
About Us
Career Opportunities
Contact AAWU Internet Services Site last modified: April, 17th 2012